Logo AVAMET
Benvolgut visitant, si us plau, ingressa Recuperar contrasenya
AVAMET paisatges

Inforatge Castelló de la Plana Tetuan

Dades diàries. Acumulats / Últims 30 dies disponibles

Data Temperatura (°C) Humitat rel. (%) Pressió rel. (hPa) Vent (km/h) Precipitació
Mínima Mitjana Màxima Amplitud
tèrmica
Mínima Mitjana Màxima Mínima Mitjana Màxima Predom. Mitjana Ràfega
màxima
Total
(mm)
Índex-n
Mínima Mitjana Màxima Mínima Mitjana Màxima n
0 a 1
P0 max
mm 5'
Dades mensuals acumulades fins l'últim dia disponible
05/2020 13,9 17,0 20,9 21,0 18,2 24,8 30,6 16,7 31 69 92 1.002 1.017 1.029   5,0 46,7 25,8
Dades anuals acumulades fins l'últim dia disponible
2020 2,6 11,7 20,9 15,5 10,4 19,4 30,6 28,0 24 72 97 995 1.020 1.034   5,1 93,3 315,2
Últims 30 dies disponibles
31-05-2020 17,8     21,5     24,9 7,1 45 73 85 1.013 1.014 1.016 SSE 4,7 30,6 0,0
30-05-2020 17,8     21,8     24,7 6,9 52 69 83 1.014 1.016 1.017 E 5,1 30,6 0,0
29-05-2020 14,1     21,8     26,3 12,2 41 64 86 1.014 1.017 1.022 SE 5,3 30,6 0,0
28-05-2020 18,1     21,3     24,5 6,4 58 72 80 1.021 1.024 1.027 E 7,1 29,0 0,0
27-05-2020 17,3     22,3     27,0 9,7 40 65 82 1.024 1.025 1.027 E 7,9 41,8 0,0
26-05-2020 17,6     21,5     25,3 7,7 57 73 87 1.024 1.026 1.027 E 3,7 25,7 0,0
25-05-2020 17,6     19,9     25,7 8,1 53 75 85 1.025 1.026 1.027 E 2,1 19,3 2,4 0,42 0,40
24-05-2020 19,4     21,3     23,1 3,7 70 76 82 1.027 1.028 1.029 E 6,6 30,6 0,0
23-05-2020 18,5     23,1     27,7 9,2 52 71 81 1.024 1.025 1.027 E 3,4 20,9 0,0
22-05-2020 19,6     23,0     26,4 6,8 68 74 86 1.020 1.022 1.025 E 3,7 24,1 0,0
21-05-2020 18,4     23,5     27,9 9,5 45 68 89 1.017 1.019 1.021 E 3,5 24,1 0,0
20-05-2020 17,9     22,7     26,7 8,8 47 66 83 1.015 1.016 1.017 E 4,0 25,7 0,0
19-05-2020 15,7     21,6     25,4 9,7 51 65 83 1.015 1.017 1.020 E 3,5 22,5 0,0
18-05-2020 15,6     20,4     24,9 9,3 50 65 86 1.019 1.020 1.022 E 4,5 25,7 0,0
17-05-2020 14,8     19,2     22,4 7,6 54 66 81 1.019 1.020 1.022 E 5,5 30,6 0,0
16-05-2020 16,3     18,4     21,6 5,3 60 73 88 1.015 1.016 1.019 NNE 6,6 38,6 1,8 0,42 0,40
15-05-2020 14,4     17,8     21,0 6,6 59 71 86 1.009 1.012 1.016 E 5,3 32,2 0,2
14-05-2020 13,9     16,4     18,2 4,3 67 81 92 1.003 1.005 1.009 NNW 2,4 22,5 16,4 0,49 1,50
13-05-2020 14,2     19,3     25,2 11,0 44 69 89 1.003 1.005 1.007 E 6,8 43,5 0,0
12-05-2020 17,2     19,4     22,3 5,1 50 68 89 1.007 1.009 1.010 E 6,1 43,5 2,4 0,36 0,60
11-05-2020 14,7     22,1     28,0 13,3 31 49 86 1.004 1.006 1.010 WSW 9,8 46,7 0,0
10-05-2020 16,3     19,1     23,1 6,8 55 78 92 1.002 1.004 1.009 E 3,9 27,4 2,6 0,36 1,00
09-05-2020 17,9     19,7     22,6 4,7 70 79 88 1.009 1.012 1.016 E 3,9 29,0 0,0
08-05-2020 17,1     19,9     22,7 5,6 58 76 87 1.013 1.017 1.019 E 7,4 41,8 0,0
07-05-2020 17,9     21,3     24,9 7,0 51 68 82 1.018 1.019 1.020 E 5,5 35,4 0,0
06-05-2020 17,0     21,2     25,2 8,2 53 75 90 1.015 1.016 1.019 E 4,0 33,8 0,0
05-05-2020 17,3     20,7     24,2 6,9 61 78 88 1.013 1.014 1.015 E 2,7 25,7 0,0
04-05-2020 16,9     20,4     23,1 6,2 74 81 91 1.014 1.016 1.018 E 2,9 24,1 0,0
03-05-2020 17,8     22,4     25,4 7,6 51 63 78 1.016 1.018 1.020 E 3,9 25,7 0,0
02-05-2020 20,9     24,6     28,2 7,3 44 54 63 1.016 1.017 1.019 E 6,0 25,7 0,0
Últims 13 mesos disponibles
04/2020 7,9 12,8 17,3 15,9 15,7 19,6 27,8 19,9 50 77 90 1.005 1.016 1.026 E 4,6 48,3 117,6
03/2020 5,9 10,6 15,3 14,1 12,2 17,8 24,8 18,9 44 69 91 1.005 1.017 1.027 E 7,3 75,6 100,2
02/2020 5,7 10,3 13,2 14,5 14,2 19,1 25,6 19,9 46 72 86 1.012 1.025 1.033 E 2,9 51,5 0,4
01/2020 2,6 7,8 13,7 11,7 10,4 15,7 21,9 19,3 60 75 95 1.018 1.025 1.032 E 5,3 93,3 71,2
12/2019 6,7 10,6 16,7 14,2 12,9 17,9 25,9 19,2 46 71 88 1.000 1.018 1.033 E 5,8 75,6 72,4
11/2019 6,1 11,7 18,8 15,8 15,2 19,9 28,2 22,1 0 49 76 0 909 1.017 WNW 6,7 77,2 4,0
10/2019 10,3 16,5 21,9 20,3 17,6 24,1 28,3 18,0 45 71 86 1.006 1.016 1.021 E 4,6 51,5 17,2
09/2019 15,1 20,5 23,5 23,8 21,7 27,3 31,2 16,1 50 71 84 1.009 1.018 1.025 SE 7,4 72,4 49,6
08/2019 18,3 22,6 25,8 26,2 25,8 29,8 33,1 14,8 53 72 80 1.010 1.016 1.020 S 5,8 53,7 28,6
07/2019 20,6 23,0 25,1 26,8 27,7 30,3 34,4 13,8 48 66 79 1.005 1.014 1.021 SE 5,8 55,6 11,0
06/2019 12,7 18,6 23,0 22,7 21,1 26,6 37,5 24,8 37 63 79 1.008 1.015 1.022 SE 6,6 50,0 0,0
05/2019 9,6 14,4 17,5 18,3 17,9 22,2 28,2 18,6 48 66 82 1.004 1.015 1.024 SSE 6,3 61,1 15,2
04/2019 8,2 11,8 14,8 15,5 16,1 19,5 27,1 18,9 43 62 85 998 1.013 1.025 S 9,3 75,9 49,6
Tots els anys disponibles
2019 2,3 14,5 25,8 18,6 12,3 22,5 37,5 35,2 0 64 88 0 1.008 1.034 S 6,3 90,7 258,6
Temperatura (°C)
Humitat relativa (%)
Velocitat del vent i ràfega màxima (km/h)
Direcció del vent (°)
Pressió (hPa)
Precipitació (mm)
Nota sobre les dades: s'avisa a l'usuari de la provisionalitat i no oficialitat d'aquestes dades
Logo AVAMET blanc
Web allotjada a Sollutia
Llicència de Creative CommonsLa web d'AVAMET i els seus continguts estan subjectes a una llicència de
Reconeixement - No Comercial - Compartir igual
Últimes estacions: Xodos - la Vega (Soci), la Vall d'Alba - Centre (Ajuntament soci), Chera (Ajuntament soci) - - -